X  Sluiten METAR luchtvaart weer gegevens         LGTS Thessaloniki Macedonia International
Temperatuur
59°F Temperatuur
59°F Dauwpunt
100% Vochtigheid



Wind
6 MPH
9 KM/U
3 M/S
5 KTS



320°
NW
Huidig weer

Cloudy with Mist and Fog Bewolkt , Nevel en mist
Luchtdruk 1006 (hPa) - 29.7 (inHg)
Zicht 6 (mijl) - 9 (km)
Vliegveld
Vliegveld code LGTS

Locatie : Thessaloniki Macedonia International
Afstand: 85 (mi)

Metar:
METAR LGTS 231920Z 32005KT 270V360 9000 4500SE BR SCT005 BKN025 OVC050 15/15 Q1006 NOSIG

Tijd: 23-04-2024 22:20 EEST